Historique des mesures à Cassis (13260), France
Quotidien Résumé Octobre 20, 2017 Unités:  Métrique    US   Métrique/US
« Précédent (Jour)
Suivant (Jour) »
Quotidien Hebdomadaire Mensuel Annuel Période au choix
  Maximum: Minimum: Moyenne:
Température: TemperatureC °C 18.2 °C 19.5 °C
Point de rosée: DewpointC °C 11.5 °C 13.6 °C
Humidité: Humidity % 61 % 65 %
Vitesse du vent: 0 km/h 0 km/h 4.8 km/h
Rafales: 0 km/h - -
Vent:- - SE
Pression: PressurehPa hPa 1010.4 hPa -
Précipitations: 0.0 mm    
Historical Graphs
 
 
Mesures pour : Octobre 20, 2017
Heure Temperature Point de rosée Pression Vent Vitesse du vent Rafales Humidité Pluie (par heure) Conditions
TemperatureC °C DewpointC °C PressurehPa hPa Calm     Humidity % HourlyPrecipMM mm SoftwareType W/m2
00:11 19.2 °C 11.5 °C 1010.7 hPa ESE 12.7 km/h 12.7 km/h 61 % 0.0 mm open2300-1.11 W/m2
01:11 19.2 °C 11.9 °C 1010.4 hPa SE 9.3 km/h 17.9 km/h 63 % 0.0 mm open2300-1.11 W/m2
02:11 19.2 °C 12.7 °C 1011.1 hPa SSE 5.6 km/h 8 km/h 66 % 0.0 mm open2300-1.11 W/m2
03:11 19.3 °C 12.8 °C 1011.1 hPa SE 23.8 km/h 23.8 km/h 66 % 0.0 mm open2300-1.11 W/m2
04:11 19.6 °C 13.1 °C 1011.7 hPa Calm   5.1 km/h 66 % 0.0 mm open2300-1.11 W/m2
05:11 19.2 °C 13.1 °C 1012.1 hPa Calm     68 % 0.0 mm open2300-1.11 W/m2
06:11 19.2 °C 12.9 °C 1012.4 hPa Calm     67 % 0.0 mm open2300-1.11 W/m2
07:11 19.3 °C 13.0 °C 1012.4 hPa East 3.4 km/h 3.4 km/h 67 % 0.0 mm open2300-1.11 W/m2
08:11 19.1 °C 12.8 °C 1013.1 hPa SE 2.9 km/h 2.9 km/h 67 % 0.0 mm open2300-1.11 W/m2
09:11 19.2 °C 12.7 °C 1014.1 hPa East 2.9 km/h 8 km/h 66 % 0.0 mm open2300-1.11 W/m2
10:11 20.1 °C 13.1 °C 1014.1 hPa East 4.7 km/h 8 km/h 64 % 0.0 mm open2300-1.11 W/m2
11:11 21.3 °C 13.7 °C 1014.4 hPa SE 14 km/h 14 km/h 62 % 0.0 mm open2300-1.11 W/m2
12:11 22.8 °C 14.9 °C 1015.1 hPa West 5.1 km/h 5.1 km/h 61 % 0.0 mm open2300-1.11 W/m2
13:11 23.4 °C 15.4 °C 1015.1 hPa East 1.8 km/h 4.2 km/h 61 % 0.0 mm open2300-1.11 W/m2
14:11 23.3 °C 16.1 °C 1014.8 hPa SSE 10.3 km/h 10.3 km/h 64 % 0.0 mm open2300-1.11 W/m2
15:11 22.7 °C 16.2 °C 1014.8 hPa SSW 3.4 km/h 6.4 km/h 67 % 0.0 mm open2300-1.11 W/m2
16:11 22.8 °C 16.1 °C 1015.1 hPa South 10.3 km/h 10.3 km/h 66 % 0.0 mm open2300-1.11 W/m2
17:11 22.4 °C 15.9 °C 1015.1 hPa ESE 4.2 km/h 5.1 km/h 67 % 0.0 mm open2300-1.11 W/m2
18:11 21.8 °C 16.1 °C 1015.5 hPa Calm   2.9 km/h 70 % 0.0 mm open2300-1.11 W/m2
19:11 20.5 °C 15.9 °C 1015.8 hPa Calm   1.8 km/h 75 % 0.0 mm open2300-1.11 W/m2
20:11 19.4 °C 15.3 °C 1016.5 hPa Calm     77 % 0.0 mm open2300-1.11 W/m2
21:11 18.6 °C 14.9 °C 1016.8 hPa Calm     79 % 0.0 mm open2300-1.11 W/m2
22:11 18.2 °C 14.9 °C 1017.2 hPa NNW 4.7 km/h 4.7 km/h 81 % 0.0 mm open2300-1.11 W/m2
23:11 18.3 °C 15.4 °C 1016.8 hPa North 2.3 km/h 2.3 km/h 83 % 0.0 mm open2300-1.11 W/m2
Observations météo à CASSIS
WU-History script by Weather Underground - 1 mb